sensor_id;sensor_type;location;lat;lon;timestamp;pressure;altitude;pressure_sealevel;temperature;humidity
20160;BME280;50187;50.492;12.134;2023-04-04T00:00:19;98618.28;;;19.88;33.92
20160;BME280;50187;50.492;12.134;2023-04-04T00:03:05;98627.84;;;19.93;33.83
20160;BME280;50187;50.492;12.134;2023-04-04T00:05:50;98626.13;;;19.92;33.88
20160;BME280;50187;50.492;12.134;2023-04-04T00:08:36;98620.56;;;19.93;33.74
20160;BME280;50187;50.492;12.134;2023-04-04T00:11:21;98623.41;;;19.92;34.07
20160;BME280;50187;50.492;12.134;2023-04-04T00:14:06;98619.00;;;19.90;33.80
20160;BME280;50187;50.492;12.134;2023-04-04T00:16:52;98612.91;;;19.88;33.81
20160;BME280;50187;50.492;12.134;2023-04-04T00:19:37;98611.88;;;19.89;34.01
20160;BME280;50187;50.492;12.134;2023-04-04T00:22:22;98610.91;;;19.90;33.92
20160;BME280;50187;50.492;12.134;2023-04-04T00:25:08;98610.19;;;19.88;33.77
20160;BME280;50187;50.492;12.134;2023-04-04T00:27:54;98621.00;;;19.88;33.90
20160;BME280;50187;50.492;12.134;2023-04-04T00:30:44;98608.19;;;19.90;33.83
20160;BME280;50187;50.492;12.134;2023-04-04T00:33:30;98607.22;;;19.92;33.95
20160;BME280;50187;50.492;12.134;2023-04-04T00:36:16;98600.94;;;19.91;33.88
20160;BME280;50187;50.492;12.134;2023-04-04T00:39:01;98601.94;;;19.90;33.82
20160;BME280;50187;50.492;12.134;2023-04-04T00:41:49;98601.81;;;19.92;33.85
20160;BME280;50187;50.492;12.134;2023-04-04T00:44:35;98600.09;;;19.90;33.94
20160;BME280;50187;50.492;12.134;2023-04-04T00:47:24;98594.69;;;19.90;33.78
20160;BME280;50187;50.492;12.134;2023-04-04T00:50:13;98580.31;;;19.80;33.84
20160;BME280;50187;50.492;12.134;2023-04-04T00:52:59;98585.00;;;19.88;33.75
20160;BME280;50187;50.492;12.134;2023-04-04T00:55:44;98590.56;;;19.86;33.82
20160;BME280;50187;50.492;12.134;2023-04-04T00:58:30;98584.31;;;19.86;33.69
20160;BME280;50187;50.492;12.134;2023-04-04T01:01:15;98582.47;;;19.86;33.81
20160;BME280;50187;50.492;12.134;2023-04-04T01:04:01;98580.72;;;19.85;33.74
20160;BME280;50187;50.492;12.134;2023-04-04T01:06:47;98583.44;;;19.85;33.77
20160;BME280;50187;50.492;12.134;2023-04-04T01:09:34;98584.19;;;19.87;33.71
20160;BME280;50187;50.492;12.134;2023-04-04T01:12:19;98584.31;;;19.86;33.69
20160;BME280;50187;50.492;12.134;2023-04-04T01:15:05;98586.28;;;19.84;33.92
20160;BME280;50187;50.492;12.134;2023-04-04T01:17:52;98578.19;;;19.84;33.96
20160;BME280;50187;50.492;12.134;2023-04-04T01:20:46;98588.84;;;19.85;33.74
20160;BME280;50187;50.492;12.134;2023-04-04T01:26:30;98582.72;;;19.83;33.81
20160;BME280;50187;50.492;12.134;2023-04-04T01:29:19;98587.16;;;19.84;33.67
20160;BME280;50187;50.492;12.134;2023-04-04T01:41:01;98572.78;;;19.84;33.72
20160;BME280;50187;50.492;12.134;2023-04-04T01:43:51;98571.78;;;19.85;33.70
20160;BME280;50187;50.492;12.134;2023-04-04T01:46:36;98563.00;;;19.83;33.78
20160;BME280;50187;50.492;12.134;2023-04-04T01:49:22;98567.50;;;19.82;33.88
20160;BME280;50187;50.492;12.134;2023-04-04T01:52:08;98559.41;;;19.82;33.74
20160;BME280;50187;50.492;12.134;2023-04-04T01:54:53;98554.16;;;19.81;33.74
20160;BME280;50187;50.492;12.134;2023-04-04T01:57:38;98559.41;;;19.82;33.72
20160;BME280;50187;50.492;12.134;2023-04-04T02:00:24;98554.16;;;19.81;33.90
20160;BME280;50187;50.492;12.134;2023-04-04T02:03:10;98555.13;;;19.80;33.66
20160;BME280;50187;50.492;12.134;2023-04-04T02:05:54;98554.53;;;19.76;33.66
20160;BME280;50187;50.492;12.134;2023-04-04T02:08:40;98558.81;;;19.79;33.86
20160;BME280;50187;50.492;12.134;2023-04-04T02:11:27;98555.25;;;19.78;33.82
20160;BME280;50187;50.492;12.134;2023-04-04T02:14:12;98559.81;;;19.78;33.73
20160;BME280;50187;50.492;12.134;2023-04-04T02:16:57;98548.41;;;19.74;33.95
20160;BME280;50187;50.492;12.134;2023-04-04T02:19:42;98540.59;;;19.71;33.68
20160;BME280;50187;50.492;12.134;2023-04-04T02:22:27;98549.00;;;19.78;33.83
20160;BME280;50187;50.492;12.134;2023-04-04T02:25:12;98541.88;;;19.77;33.64
20160;BME280;50187;50.492;12.134;2023-04-04T02:27:57;98542.75;;;19.77;33.63
20160;BME280;50187;50.492;12.134;2023-04-04T02:30:44;98542.75;;;19.77;33.77
20160;BME280;50187;50.492;12.134;2023-04-04T02:33:29;98532.09;;;19.76;33.85
20160;BME280;50187;50.492;12.134;2023-04-04T02:36:18;98534.66;;;19.77;33.76
20160;BME280;50187;50.492;12.134;2023-04-04T02:39:05;98532.81;;;19.78;33.66
20160;BME280;50187;50.492;12.134;2023-04-04T02:41:50;98537.34;;;19.77;33.58
20160;BME280;50187;50.492;12.134;2023-04-04T02:44:35;98535.50;;;19.78;33.74
20160;BME280;50187;50.492;12.134;2023-04-04T02:47:21;98535.41;;;19.79;33.67
20160;BME280;50187;50.492;12.134;2023-04-04T02:50:08;98540.91;;;19.78;33.74
20160;BME280;50187;50.492;12.134;2023-04-04T02:52:59;98545.31;;;19.79;33.83
20160;BME280;50187;50.492;12.134;2023-04-04T02:55:49;98537.09;;;19.80;33.60
20160;BME280;50187;50.492;12.134;2023-04-04T02:58:34;98525.53;;;19.78;33.50
20160;BME280;50187;50.492;12.134;2023-04-04T03:01:19;98522.00;;;19.78;33.69
20160;BME280;50187;50.492;12.134;2023-04-04T03:04:05;98522.00;;;19.78;33.67
20160;BME280;50187;50.492;12.134;2023-04-04T03:06:52;98531.09;;;19.77;33.83
20160;BME280;50187;50.492;12.134;2023-04-04T03:09:38;98528.25;;;19.78;33.80
20160;BME280;50187;50.492;12.134;2023-04-04T03:12:23;98525.81;;;19.75;33.63
20160;BME280;50187;50.492;12.134;2023-04-04T03:15:08;98519.44;;;19.76;33.54
20160;BME280;50187;50.492;12.134;2023-04-04T03:17:54;98521.16;;;19.77;33.76
20160;BME280;50187;50.492;12.134;2023-04-04T03:20:43;98511.34;;;19.76;33.70
20160;BME280;50187;50.492;12.134;2023-04-04T03:23:28;98509.78;;;19.73;33.75
20160;BME280;50187;50.492;12.134;2023-04-04T03:26:13;98503.38;;;19.74;33.63
20160;BME280;50187;50.492;12.134;2023-04-04T03:28:59;98514.03;;;19.76;33.82
20160;BME280;50187;50.492;12.134;2023-04-04T03:31:45;98512.31;;;19.75;33.53
20160;BME280;50187;50.492;12.134;2023-04-04T03:34:30;98511.63;;;19.73;33.61
20160;BME280;50187;50.492;12.134;2023-04-04T03:37:16;98499.81;;;19.74;33.69
20160;BME280;50187;50.492;12.134;2023-04-04T03:40:01;98498.81;;;19.75;33.63
20160;BME280;50187;50.492;12.134;2023-04-04T03:42:46;98498.81;;;19.75;33.66
20160;BME280;50187;50.492;12.134;2023-04-04T03:45:36;98500.69;;;19.74;33.53
20160;BME280;50187;50.492;12.134;2023-04-04T03:48:22;98501.81;;;19.72;33.65
20160;BME280;50187;50.492;12.134;2023-04-04T03:51:07;98494.41;;;19.74;33.57
20160;BME280;50187;50.492;12.134;2023-04-04T03:53:55;98497.97;;;19.74;33.63
20160;BME280;50187;50.492;12.134;2023-04-04T03:56:40;98491.84;;;19.72;33.70
20160;BME280;50187;50.492;12.134;2023-04-04T03:59:25;98491.00;;;19.72;33.80
20160;BME280;50187;50.492;12.134;2023-04-04T04:02:11;98499.94;;;19.72;33.60
20160;BME280;50187;50.492;12.134;2023-04-04T04:04:56;98489.16;;;19.72;33.70
20160;BME280;50187;50.492;12.134;2023-04-04T04:07:42;98490.03;;;19.73;33.78
20160;BME280;50187;50.492;12.134;2023-04-04T04:10:28;98494.56;;;19.72;33.60
20160;BME280;50187;50.492;12.134;2023-04-04T04:13:13;98494.69;;;19.71;33.60
20160;BME280;50187;50.492;12.134;2023-04-04T04:15:59;98494.69;;;19.71;33.52
20160;BME280;50187;50.492;12.134;2023-04-04T04:18:44;98496.41;;;19.72;33.66
20160;BME280;50187;50.492;12.134;2023-04-04T04:21:35;98490.16;;;19.71;33.72
20160;BME280;50187;50.492;12.134;2023-04-04T04:24:20;98490.16;;;19.71;33.72
20160;BME280;50187;50.492;12.134;2023-04-04T04:27:06;98492.00;;;19.71;33.76
20160;BME280;50187;50.492;12.134;2023-04-04T04:29:51;98484.03;;;19.69;33.58
20160;BME280;50187;50.492;12.134;2023-04-04T04:32:36;98483.91;;;19.71;33.72
20160;BME280;50187;50.492;12.134;2023-04-04T04:35:22;98492.28;;;19.68;33.73
20160;BME280;50187;50.492;12.134;2023-04-04T04:38:07;98486.16;;;19.66;33.60
20160;BME280;50187;50.492;12.134;2023-04-04T04:40:53;98471.66;;;19.67;33.76
20160;BME280;50187;50.492;12.134;2023-04-04T04:43:45;98485.03;;;19.68;33.62
20160;BME280;50187;50.492;12.134;2023-04-04T04:46:30;98485.28;;;19.65;33.81
20160;BME280;50187;50.492;12.134;2023-04-04T04:49:17;98484.19;;;19.68;33.63
20160;BME280;50187;50.492;12.134;2023-04-04T04:52:03;98486.88;;;19.68;33.79
20160;BME280;50187;50.492;12.134;2023-04-04T04:54:49;98479.06;;;19.65;33.78
20160;BME280;50187;50.492;12.134;2023-04-04T04:57:35;98480.78;;;19.66;33.87
20160;BME280;50187;50.492;12.134;2023-04-04T05:00:28;98487.84;;;19.67;33.64
20160;BME280;50187;50.492;12.134;2023-04-04T05:03:14;98496.97;;;19.66;33.70
20160;BME280;50187;50.492;12.134;2023-04-04T05:06:05;98488.44;;;19.70;33.56
20160;BME280;50187;50.492;12.134;2023-04-04T05:08:52;98489.88;;;19.74;33.61
20160;BME280;50187;50.492;12.134;2023-04-04T05:11:51;98493.03;;;19.80;33.54
20160;BME280;50187;50.492;12.134;2023-04-04T05:14:40;98498.06;;;19.84;33.54
20160;BME280;50187;50.492;12.134;2023-04-04T05:17:26;98494.34;;;19.85;33.63
20160;BME280;50187;50.492;12.134;2023-04-04T05:20:16;98502.59;;;19.94;33.32
20160;BME280;50187;50.492;12.134;2023-04-04T05:23:04;98507.63;;;19.98;33.59
20160;BME280;50187;50.492;12.134;2023-04-04T05:25:54;98505.47;;;20.02;33.27
20160;BME280;50187;50.492;12.134;2023-04-04T05:28:42;98510.44;;;20.06;33.49
20160;BME280;50187;50.492;12.134;2023-04-04T05:31:28;98509.47;;;20.07;33.31
20160;BME280;50187;50.492;12.134;2023-04-04T05:34:14;98509.31;;;20.09;33.21
20160;BME280;50187;50.492;12.134;2023-04-04T05:36:59;98513.59;;;20.12;33.17
20160;BME280;50187;50.492;12.134;2023-04-04T05:39:45;98510.47;;;20.16;33.13
20160;BME280;50187;50.492;12.134;2023-04-04T05:42:30;98518.31;;;20.19;33.04
20160;BME280;50187;50.492;12.134;2023-04-04T05:45:17;98518.31;;;20.19;33.29
20160;BME280;50187;50.492;12.134;2023-04-04T05:48:02;98519.03;;;20.21;33.15
20160;BME280;50187;50.492;12.134;2023-04-04T05:50:53;98521.88;;;20.20;33.21
20160;BME280;50187;50.492;12.134;2023-04-04T05:53:50;98523.59;;;20.21;33.07
20160;BME280;50187;50.492;12.134;2023-04-04T05:56:41;98515.34;;;20.22;33.29
20160;BME280;50187;50.492;12.134;2023-04-04T05:59:33;98510.06;;;20.21;33.10
20160;BME280;50187;50.492;12.134;2023-04-04T06:02:21;98526.56;;;20.28;33.22
20160;BME280;50187;50.492;12.134;2023-04-04T06:05:11;98525.00;;;20.15;33.13
20160;BME280;50187;50.492;12.134;2023-04-04T06:07:57;98522.31;;;20.25;33.14
20160;BME280;50187;50.492;12.134;2023-04-04T06:10:42;98522.31;;;20.25;33.24
20160;BME280;50187;50.492;12.134;2023-04-04T06:13:27;98523.00;;;20.27;33.01
20160;BME280;50187;50.492;12.134;2023-04-04T06:16:18;98524.88;;;20.27;33.02
20160;BME280;50187;50.492;12.134;2023-04-04T06:19:05;98528.28;;;20.29;33.21
20160;BME280;50187;50.492;12.134;2023-04-04T06:21:50;98529.25;;;20.28;33.18
20160;BME280;50187;50.492;12.134;2023-04-04T06:24:36;98527.56;;;20.27;33.21
20160;BME280;50187;50.492;12.134;2023-04-04T06:27:22;98522.03;;;20.28;33.27
20160;BME280;50187;50.492;12.134;2023-04-04T06:30:08;98519.59;;;20.25;33.23
20160;BME280;50187;50.492;12.134;2023-04-04T06:32:56;98526.44;;;20.29;33.07
20160;BME280;50187;50.492;12.134;2023-04-04T06:35:45;98530.00;;;20.30;33.10
20160;BME280;50187;50.492;12.134;2023-04-04T06:38:32;98519.19;;;20.30;33.25
20160;BME280;50187;50.492;12.134;2023-04-04T06:41:21;98527.72;;;20.35;33.14
20160;BME280;50187;50.492;12.134;2023-04-04T06:44:08;98525.03;;;20.35;33.05
20160;BME280;50187;50.492;12.134;2023-04-04T06:46:54;98528.44;;;20.37;33.03
20160;BME280;50187;50.492;12.134;2023-04-04T06:49:41;98518.47;;;20.37;33.08
20160;BME280;50187;50.492;12.134;2023-04-04T06:52:28;98526.72;;;20.36;33.06
20160;BME280;50187;50.492;12.134;2023-04-04T06:55:13;98528.44;;;20.37;33.26
20160;BME280;50187;50.492;12.134;2023-04-04T06:57:58;98525.03;;;20.35;33.16
20160;BME280;50187;50.492;12.134;2023-04-04T07:00:44;98527.44;;;20.38;33.18
20160;BME280;50187;50.492;12.134;2023-04-04T07:03:30;98531.81;;;20.39;33.24
20160;BME280;50187;50.492;12.134;2023-04-04T07:06:15;98524.47;;;20.41;33.18
20160;BME280;50187;50.492;12.134;2023-04-04T07:09:02;98528.16;;;20.40;33.19
20160;BME280;50187;50.492;12.134;2023-04-04T07:11:51;98523.03;;;20.37;32.85
20160;BME280;50187;50.492;12.134;2023-04-04T07:14:36;98524.47;;;20.41;33.16
20160;BME280;50187;50.492;12.134;2023-04-04T07:17:22;98534.97;;;20.44;33.02
20160;BME280;50187;50.492;12.134;2023-04-04T07:20:09;98526.03;;;20.44;33.07
20160;BME280;50187;50.492;12.134;2023-04-04T07:22:55;98528.59;;;20.45;32.95
20160;BME280;50187;50.492;12.134;2023-04-04T07:25:40;98531.28;;;20.45;33.22
20160;BME280;50187;50.492;12.134;2023-04-04T07:28:28;98528.16;;;20.50;33.12
20160;BME280;50187;50.492;12.134;2023-04-04T07:31:13;98526.19;;;20.52;32.97
20160;BME280;50187;50.492;12.134;2023-04-04T07:33:58;98522.59;;;20.51;33.09
20160;BME280;50187;50.492;12.134;2023-04-04T07:36:44;98537.84;;;20.52;33.10
20160;BME280;50187;50.492;12.134;2023-04-04T07:39:28;98529.44;;;20.55;33.04
20160;BME280;50187;50.492;12.134;2023-04-04T07:42:14;98530.72;;;20.51;32.88
20160;BME280;50187;50.492;12.134;2023-04-04T07:44:59;98528.88;;;20.52;33.18
20160;BME280;50187;50.492;12.134;2023-04-04T07:47:44;98531.69;;;20.50;32.98
20160;BME280;50187;50.492;12.134;2023-04-04T07:50:30;98536.84;;;20.53;33.10
20160;BME280;50187;50.492;12.134;2023-04-04T07:53:15;98525.31;;;20.51;33.06
20160;BME280;50187;50.492;12.134;2023-04-04T07:56:00;98525.31;;;20.51;32.97
20160;BME280;50187;50.492;12.134;2023-04-04T07:58:50;98531.28;;;20.55;33.04
20160;BME280;50187;50.492;12.134;2023-04-04T08:01:35;98528.88;;;20.52;32.92
20160;BME280;50187;50.492;12.134;2023-04-04T08:04:20;98526.72;;;20.55;32.95
20160;BME280;50187;50.492;12.134;2023-04-04T08:07:06;98533.84;;;20.56;32.86
20160;BME280;50187;50.492;12.134;2023-04-04T08:09:51;98532.28;;;20.54;33.10
20160;BME280;50187;50.492;12.134;2023-04-04T08:12:36;98534.41;;;20.60;32.95
20160;BME280;50187;50.492;12.134;2023-04-04T08:15:21;98534.41;;;20.60;32.94
20160;BME280;50187;50.492;12.134;2023-04-04T08:18:06;98519.06;;;20.51;33.21
20160;BME280;50187;50.492;12.134;2023-04-04T08:20:52;98533.84;;;20.56;33.25
20160;BME280;50187;50.492;12.134;2023-04-04T08:23:38;98531.00;;;20.58;33.29
20160;BME280;50187;50.492;12.134;2023-04-04T08:26:23;98531.00;;;20.58;33.23
20160;BME280;50187;50.492;12.134;2023-04-04T08:29:08;98526.19;;;20.62;33.48
20160;BME280;50187;50.492;12.134;2023-04-04T08:31:54;98528.75;;;20.63;33.56
20160;BME280;50187;50.492;12.134;2023-04-04T08:34:39;98531.44;;;20.63;33.53
20160;BME280;50187;50.492;12.134;2023-04-04T08:37:25;98524.19;;;20.64;33.69
20160;BME280;50187;50.492;12.134;2023-04-04T08:40:10;98533.75;;;20.68;33.68
20160;BME280;50187;50.492;12.134;2023-04-04T08:42:55;98524.78;;;20.67;33.90
20160;BME280;50187;50.492;12.134;2023-04-04T08:45:42;98508.56;;;20.67;33.70
20160;BME280;50187;50.492;12.134;2023-04-04T08:48:29;98521.94;;;20.69;33.87
20160;BME280;50187;50.492;12.134;2023-04-04T08:51:16;98523.22;;;20.74;33.97
20160;BME280;50187;50.492;12.134;2023-04-04T08:54:03;98520.09;;;20.79;34.19
20160;BME280;50187;50.492;12.134;2023-04-04T08:56:49;98510.69;;;20.83;34.21
20160;BME280;50187;50.492;12.134;2023-04-04T08:59:36;98518.06;;;20.81;34.10
20160;BME280;50187;50.492;12.134;2023-04-04T09:02:28;98516.78;;;20.85;34.13
20160;BME280;50187;50.492;12.134;2023-04-04T09:05:18;98517.22;;;20.81;34.09
20160;BME280;50187;50.492;12.134;2023-04-04T09:08:04;98511.53;;;20.84;34.27
20160;BME280;50187;50.492;12.134;2023-04-04T09:10:51;98513.41;;;20.83;34.16
20160;BME280;50187;50.492;12.134;2023-04-04T09:13:36;98511.38;;;20.85;34.17
20160;BME280;50187;50.492;12.134;2023-04-04T09:16:25;98504.97;;;20.86;33.96
20160;BME280;50187;50.492;12.134;2023-04-04T09:19:11;98504.69;;;20.89;33.90
20160;BME280;50187;50.492;12.134;2023-04-04T09:21:56;98501.97;;;20.89;33.90
20160;BME280;50187;50.492;12.134;2023-04-04T09:24:42;98520.91;;;20.89;34.16
20160;BME280;50187;50.492;12.134;2023-04-04T09:27:27;98509.81;;;20.92;34.00
20160;BME280;50187;50.492;12.134;2023-04-04T09:30:12;98510.81;;;20.91;33.94
20160;BME280;50187;50.492;12.134;2023-04-04T09:33:03;98507.41;;;20.89;33.74
20160;BME280;50187;50.492;12.134;2023-04-04T09:36:02;98512.66;;;20.91;33.75
20160;BME280;50187;50.492;12.134;2023-04-04T09:38:52;98503.41;;;20.93;33.68
20160;BME280;50187;50.492;12.134;2023-04-04T09:41:37;98509.81;;;20.92;33.62
20160;BME280;50187;50.492;12.134;2023-04-04T09:44:28;98518.78;;;20.93;33.83
20160;BME280;50187;50.492;12.134;2023-04-04T09:47:24;98506.69;;;20.97;33.79
20160;BME280;50187;50.492;12.134;2023-04-04T09:50:20;98505.81;;;20.97;32.43
20160;BME280;50187;50.492;12.134;2023-04-04T09:53:06;98515.50;;;20.99;31.15
20160;BME280;50187;50.492;12.134;2023-04-04T09:55:52;98532.72;;;20.98;30.16
20160;BME280;50187;50.492;12.134;2023-04-04T09:58:38;98515.81;;;20.86;30.17
20160;BME280;50187;50.492;12.134;2023-04-04T10:01:36;98510.97;;;20.80;29.54
20160;BME280;50187;50.492;12.134;2023-04-04T10:04:22;98517.97;;;20.73;29.31
20160;BME280;50187;50.492;12.134;2023-04-04T10:07:12;98511.34;;;20.66;29.35
20160;BME280;50187;50.492;12.134;2023-04-04T10:10:04;98512.22;;;20.66;28.86
20160;BME280;50187;50.492;12.134;2023-04-04T10:12:51;98511.00;;;20.70;28.77
20160;BME280;50187;50.492;12.134;2023-04-04T10:15:37;98510.84;;;20.82;28.67
20160;BME280;50187;50.492;12.134;2023-04-04T10:18:28;98499.88;;;20.83;28.76
20160;BME280;50187;50.492;12.134;2023-04-04T10:21:14;98509.97;;;20.81;28.42
20160;BME280;50187;50.492;12.134;2023-04-04T10:24:01;98508.69;;;20.75;28.28
20160;BME280;50187;50.492;12.134;2023-04-04T10:26:53;98516.41;;;20.70;28.11
20160;BME280;50187;50.492;12.134;2023-04-04T10:29:39;98519.09;;;20.70;27.84
20160;BME280;50187;50.492;12.134;2023-04-04T10:32:38;98511.28;;;20.67;27.93
20160;BME280;50187;50.492;12.134;2023-04-04T10:35:26;98508.53;;;20.57;27.94
20160;BME280;50187;50.492;12.134;2023-04-04T10:38:12;98514.50;;;20.61;28.10
20160;BME280;50187;50.492;12.134;2023-04-04T10:40:58;98514.78;;;20.58;27.99
20160;BME280;50187;50.492;12.134;2023-04-04T10:43:46;98502.84;;;20.61;28.08
20160;BME280;50187;50.492;12.134;2023-04-04T10:46:33;98504.25;;;20.65;27.84
20160;BME280;50187;50.492;12.134;2023-04-04T10:49:20;98506.72;;;20.68;27.77
20160;BME280;50187;50.492;12.134;2023-04-04T10:52:05;98497.16;;;20.64;28.54
20160;BME280;50187;50.492;12.134;2023-04-04T10:54:54;98505.94;;;20.66;28.58
20160;BME280;50187;50.492;12.134;2023-04-04T10:57:51;98495.06;;;20.67;28.18
20160;BME280;50187;50.492;12.134;2023-04-04T11:00:49;98504.25;;;20.65;28.11
20160;BME280;50187;50.492;12.134;2023-04-04T11:07:15;98494.44;;;20.64;27.84
20160;BME280;50187;50.492;12.134;2023-04-04T11:10:12;98492.72;;;20.63;28.37
20160;BME280;50187;50.492;12.134;2023-04-04T11:13:01;98495.28;;;20.54;28.05
20160;BME280;50187;50.492;12.134;2023-04-04T11:16:05;98488.88;;;20.55;28.20
20160;BME280;50187;50.492;12.134;2023-04-04T11:18:58;98486.19;;;20.55;28.19
20160;BME280;50187;50.492;12.134;2023-04-04T11:21:49;98483.03;;;20.50;27.76
20160;BME280;50187;50.492;12.134;2023-04-04T11:24:41;98489.31;;;20.51;27.58
20160;BME280;50187;50.492;12.134;2023-04-04T11:27:28;98478.94;;;20.46;27.27
20160;BME280;50187;50.492;12.134;2023-04-04T11:30:14;98484.06;;;20.49;27.07
20160;BME280;50187;50.492;12.134;2023-04-04T11:33:01;98477.66;;;20.40;27.02
20160;BME280;50187;50.492;12.134;2023-04-04T11:35:52;98474.38;;;20.37;27.00
20160;BME280;50187;50.492;12.134;2023-04-04T11:38:47;98481.06;;;20.33;26.79
20160;BME280;50187;50.492;12.134;2023-04-04T11:41:48;98462.00;;;20.24;26.72
20160;BME280;50187;50.492;12.134;2023-04-04T12:08:43;98454.34;;;20.49;26.95
20160;BME280;50187;50.492;12.134;2023-04-04T12:11:29;98449.78;;;20.50;27.03
20160;BME280;50187;50.492;12.134;2023-04-04T12:14:19;98443.38;;;20.51;27.10
20160;BME280;50187;50.492;12.134;2023-04-04T12:17:04;98438.13;;;20.49;26.60
20160;BME280;50187;50.492;12.134;2023-04-04T12:19:49;98443.66;;;20.57;26.39
20160;BME280;50187;50.492;12.134;2023-04-04T12:22:36;98439.53;;;20.63;26.37
20160;BME280;50187;50.492;12.134;2023-04-04T12:25:22;98436.09;;;20.61;26.29
20160;BME280;50187;50.492;12.134;2023-04-04T12:28:13;98439.25;;;20.56;26.13
20160;BME280;50187;50.492;12.134;2023-04-04T12:31:00;98422.19;;;20.56;26.34
20160;BME280;50187;50.492;12.134;2023-04-04T12:33:49;98431.44;;;20.53;26.32
20160;BME280;50187;50.492;12.134;2023-04-04T12:36:36;98433.69;;;20.48;26.12
20160;BME280;50187;50.492;12.134;2023-04-04T12:39:25;98434.84;;;20.46;26.29
20160;BME280;50187;50.492;12.134;2023-04-04T12:42:10;98424.31;;;20.33;26.43
20160;BME280;50187;50.492;12.134;2023-04-04T12:44:56;98435.41;;;20.30;26.55
20160;BME280;50187;50.492;12.134;2023-04-04T12:47:52;98430.31;;;20.27;26.58
20160;BME280;50187;50.492;12.134;2023-04-04T12:53:33;98433.16;;;20.25;26.46
20160;BME280;50187;50.492;12.134;2023-04-04T12:56:34;98433.16;;;20.25;26.72
20160;BME280;50187;50.492;12.134;2023-04-04T12:59:20;98422.06;;;20.28;26.59
20160;BME280;50187;50.492;12.134;2023-04-04T13:02:10;98433.84;;;20.27;26.38
20160;BME280;50187;50.492;12.134;2023-04-04T13:04:57;98423.03;;;20.27;26.38
20160;BME280;50187;50.492;12.134;2023-04-04T13:07:42;98414.38;;;20.23;26.57
20160;BME280;50187;50.492;12.134;2023-04-04T13:10:28;98414.38;;;20.23;26.14
20160;BME280;50187;50.492;12.134;2023-04-04T13:13:32;98416.22;;;20.23;26.13
20160;BME280;50187;50.492;12.134;2023-04-04T13:16:34;98411.53;;;20.25;25.83
20160;BME280;50187;50.492;12.134;2023-04-04T13:19:21;98414.09;;;20.27;25.69
20160;BME280;50187;50.492;12.134;2023-04-04T13:22:08;98414.25;;;20.25;25.92
20160;BME280;50187;50.492;12.134;2023-04-04T13:24:53;98406.53;;;20.30;25.75
20160;BME280;50187;50.492;12.134;2023-04-04T13:27:38;98412.97;;;20.29;25.79
20160;BME280;50187;50.492;12.134;2023-04-04T13:30:23;98407.41;;;20.31;25.71
20160;BME280;50187;50.492;12.134;2023-04-04T13:33:08;98413.06;;;20.28;25.89
20160;BME280;50187;50.492;12.134;2023-04-04T13:35:53;98409.38;;;20.29;26.25
20160;BME280;50187;50.492;12.134;2023-04-04T13:38:39;98404.72;;;20.31;26.22
20160;BME280;50187;50.492;12.134;2023-04-04T13:41:24;98403.00;;;20.30;25.93
20160;BME280;50187;50.492;12.134;2023-04-04T13:44:12;98403.69;;;20.32;25.86
20160;BME280;50187;50.492;12.134;2023-04-04T13:46:58;98399.56;;;20.37;25.63
20160;BME280;50187;50.492;12.134;2023-04-04T13:49:43;98395.31;;;20.35;25.71
20160;BME280;50187;50.492;12.134;2023-04-04T13:52:28;98391.19;;;20.40;25.53
20160;BME280;50187;50.492;12.134;2023-04-04T13:55:13;98385.66;;;20.42;25.52
20160;BME280;50187;50.492;12.134;2023-04-04T13:57:58;98375.53;;;20.44;25.41
20160;BME280;50187;50.492;12.134;2023-04-04T14:00:43;98370.00;;;20.36;25.50
20160;BME280;50187;50.492;12.134;2023-04-04T14:03:29;98355.78;;;20.44;25.34
20160;BME280;50187;50.492;12.134;2023-04-04T14:06:14;98360.88;;;20.47;25.24
20160;BME280;50187;50.492;12.134;2023-04-04T14:08:59;98369.81;;;20.47;25.22
20160;BME280;50187;50.492;12.134;2023-04-04T14:11:44;98364.72;;;20.44;25.34
20160;BME280;50187;50.492;12.134;2023-04-04T14:14:30;98360.03;;;20.46;25.70
20160;BME280;50187;50.492;12.134;2023-04-04T14:17:17;98378.81;;;20.48;25.75
20160;BME280;50187;50.492;12.134;2023-04-04T14:20:03;98367.84;;;20.49;25.47
20160;BME280;50187;50.492;12.134;2023-04-04T14:22:48;98362.84;;;20.45;25.44
20160;BME280;50187;50.492;12.134;2023-04-04T14:25:33;98379.38;;;20.41;25.52
20160;BME280;50187;50.492;12.134;2023-04-04T14:28:18;98364.72;;;20.44;25.79
20160;BME280;50187;50.492;12.134;2023-04-04T14:31:04;98368.00;;;20.48;25.27
20160;BME280;50187;50.492;12.134;2023-04-04T14:33:51;98357.44;;;20.45;25.27
20160;BME280;50187;50.492;12.134;2023-04-04T14:36:36;98351.78;;;20.48;25.48
20160;BME280;50187;50.492;12.134;2023-04-04T14:39:21;98360.72;;;20.48;25.45
20160;BME280;50187;50.492;12.134;2023-04-04T14:42:06;98354.34;;;20.49;25.27
20160;BME280;50187;50.492;12.134;2023-04-04T14:44:52;98351.78;;;20.48;25.35
20160;BME280;50187;50.492;12.134;2023-04-04T14:47:37;98360.72;;;20.48;25.63
20160;BME280;50187;50.492;12.134;2023-04-04T14:50:23;98365.16;;;20.49;25.96
20160;BME280;50187;50.492;12.134;2023-04-04T14:53:08;98352.63;;;20.48;25.64
20160;BME280;50187;50.492;12.134;2023-04-04T14:55:53;98349.50;;;20.43;25.72
20160;BME280;50187;50.492;12.134;2023-04-04T14:58:38;98370.41;;;20.41;26.40
20160;BME280;50187;50.492;12.134;2023-04-04T15:01:23;98372.97;;;20.42;26.94
20160;BME280;50187;50.492;12.134;2023-04-04T15:04:09;98353.47;;;20.39;26.57
20160;BME280;50187;50.492;12.134;2023-04-04T15:06:59;98354.06;;;20.42;26.58
20160;BME280;50187;50.492;12.134;2023-04-04T15:10:00;98353.38;;;20.40;26.20
20160;BME280;50187;50.492;12.134;2023-04-04T15:12:48;98343.25;;;20.42;26.81
20160;BME280;50187;50.492;12.134;2023-04-04T15:15:40;98352.03;;;20.45;26.60